メインページ
METAR-TAF:

METAR-TAF

空港 :

ロマン・トメトゥチェル国際空港

コロール, バベルダオブ島, パラオ

緯度: 07-22N, 経度: 134-32E, 海抜: 54m

現時点の気象観測

当レポートは1時間3分前の18:50(UTC)に作成
の風 6kt
気温 23°C
湿度 94%
気圧 1009 hPa
視程: 16.1km
高度1500ftの曇り, 積乱雲.
弱いにわか雨

METAR: PTRO 181850Z 19006KT 10SM -SHRA OVC015CB 23/22 A2979 RMK CB ALQDS

時間: 04:53 (19:53 UTC)

予報

当レポートは2時間16分前の17:37(UTC)に作成
予報は18日の 18時(UTC)から 19日の 18時(UTC)まで有効
西/北西の風 11kt
視程: 10km
高度1600ftの雲は散在している
高度4000ftの雲は散在している
高度10000ftの曇り
近辺でにわか雨
18日の 18時(UTC)から 18日の 20時(UTC)まで一時的に
高度1600ftの千切れ雲あり
弱いにわか雨
18日の 2000時(UTC)から
北西の風 12kt
視程: 9.7km
高度1400ftの雲は散在している, 積乱雲.
高度4000ftの千切れ雲あり
高度8000ftの曇り
小雨, 近辺で激しい雷雨
18日の 20時(UTC)から 18日の 24時(UTC)まで一時的に
視程: 4.8km
高度1200ftの千切れ雲あり
高度2000ftの曇り
激しいにわか雨
19日の 0000時(UTC)から
西/北西の風 10kt
視程: 10km
高度1600ftの雲は散在している
高度4000ftの雲は散在している
高度12000ftの千切れ雲あり
近辺でにわか雨

TAF: PTRO 181737Z 1818/1918 30011KT P6SM VCSH SCT016 SCT040 OVC100 TEMPO 1818/1820 -SHRA BKN016 FM182000 32012KT 6SM -RA VCTS SCT014CB BKN040 OVC080 TEMPO 1820/1824 3SM +SHRA BKN012 OVC020 FM190000 30010KT P6SM VCSH SCT016 SCT040 BKN120

4,000以上の空港の気象観測と天気予報(METAR報とTAF報)

利用可能な観測所は地図上に黄色い丸と赤い丸で示す。

丸の上にカーソルを重ねると観測所名を参照できる。

次にクリックすると気象観測と天気予報を参照できる。

マップの切り替え:黒色「×」印の緑ボタンをクリックして拡大、「-」印の緑ボタンをクリックして縮小、緑色の三角印をクリックして隣りの地図に切り替え


METAR-TAF: